createdAt,value
2019-05-20T00:00:55.675Z,99830.08
2019-05-20T00:05:59.926Z,99814.13
2019-05-20T00:11:04.232Z,99818.58
2019-05-20T00:16:08.567Z,99819.69
2019-05-20T00:21:12.813Z,99820.52
2019-05-20T00:26:17.144Z,99818.95
2019-05-20T00:31:21.337Z,99827.09
2019-05-20T00:36:25.546Z,99827.63
2019-05-20T00:41:29.783Z,99817.68
2019-05-20T00:46:33.990Z,99813.33
2019-05-20T00:51:38.228Z,99813.91
2019-05-20T00:56:42.427Z,99821.55
2019-05-20T01:01:46.686Z,99826.67
2019-05-20T01:06:51.171Z,99816.23
2019-05-20T01:11:55.361Z,99818.19
2019-05-20T01:16:59.664Z,99819.81
2019-05-20T01:22:03.873Z,99823.91
2019-05-20T01:27:08.093Z,99822.08
2019-05-20T01:32:12.317Z,99812.59
2019-05-20T01:37:16.516Z,99810.26
2019-05-20T01:42:20.745Z,99811.63
2019-05-20T01:47:24.968Z,99801.69
2019-05-20T01:52:29.207Z,99802.73
2019-05-20T01:57:33.420Z,99788.94
2019-05-20T02:02:37.822Z,99787.42
2019-05-20T02:07:42.052Z,99787.42
2019-05-20T02:12:46.311Z,99793.78
2019-05-20T02:17:50.511Z,99792.76
2019-05-20T02:22:56.977Z,99802.00
2019-05-20T02:28:01.189Z,99801.47
2019-05-20T02:33:05.379Z,99790.15
2019-05-20T02:38:09.576Z,99784.77
2019-05-20T02:43:14.103Z,99781.94
2019-05-20T02:48:18.335Z,99770.86
2019-05-20T02:53:22.563Z,99765.55
2019-05-20T02:58:26.771Z,99766.98
2019-05-20T03:03:30.996Z,99774.87
2019-05-20T03:08:35.204Z,99769.27
2019-05-20T03:13:39.401Z,99777.97
2019-05-20T03:18:43.601Z,99773.91
2019-05-20T03:23:47.807Z,99769.36
2019-05-20T03:28:52.004Z,99770.16
2019-05-20T03:33:56.212Z,99774.25
2019-05-20T03:39:00.614Z,99772.97
2019-05-20T03:44:04.945Z,99772.91
2019-05-20T03:49:09.179Z,99767.23
2019-05-20T03:54:13.372Z,99769.93
2019-05-20T03:59:17.594Z,99768.36
2019-05-20T04:04:24.992Z,99762.72
2019-05-20T04:09:27.739Z,99756.50
2019-05-20T04:14:31.920Z,99760.48
2019-05-20T04:19:36.217Z,99757.55
2019-05-20T04:24:40.415Z,99756.41
2019-05-20T04:29:44.818Z,99762.55
2019-05-20T04:34:49.046Z,99765.70
2019-05-20T04:39:53.281Z,99759.74
2019-05-20T04:44:57.470Z,99758.00
2019-05-20T04:50:01.686Z,99770.65
2019-05-20T04:55:06.128Z,99770.10
2019-05-20T05:00:10.926Z,99771.16
2019-05-20T05:05:15.134Z,99765.47
2019-05-20T05:10:19.323Z,99768.93
2019-05-20T05:15:23.519Z,99793.41
2019-05-20T05:20:27.716Z,99783.22
2019-05-20T05:25:31.958Z,99791.48
2019-05-20T05:30:37.277Z,99795.88
2019-05-20T05:35:52.762Z,99786.65
2019-05-20T05:40:47.386Z,99779.16
2019-05-20T05:45:51.601Z,99786.36
2019-05-20T05:50:55.805Z,99780.56
2019-05-20T05:56:00.021Z,99773.50
2019-05-20T06:01:04.222Z,99779.45
2019-05-20T06:06:12.651Z,99785.77
2019-05-20T06:11:14.717Z,99777.14
2019-05-20T06:16:35.440Z,99785.89
2019-05-20T06:21:24.903Z,99777.49
2019-05-20T06:26:29.113Z,99773.84
2019-05-20T06:31:33.330Z,99767.16
2019-05-20T06:36:42.399Z,99757.77
2019-05-20T06:41:46.628Z,99749.68
2019-05-20T06:46:50.845Z,99738.22
2019-05-20T06:51:55.052Z,99759.88
2019-05-20T06:56:59.300Z,99749.24
2019-05-20T07:02:03.618Z,99760.13
2019-05-20T07:07:20.604Z,99760.13
2019-05-20T07:12:13.845Z,99735.42
2019-05-20T07:17:18.054Z,99745.45
2019-05-20T07:22:22.296Z,99745.91
2019-05-20T07:27:26.493Z,99750.88
2019-05-20T07:32:30.700Z,99741.41
2019-05-20T07:37:34.918Z,99741.23
2019-05-20T07:42:39.186Z,99739.43
2019-05-20T07:47:43.981Z,99726.73
2019-05-20T07:52:48.284Z,99733.05
2019-05-20T07:57:54.922Z,99724.03
2019-05-20T08:02:59.427Z,99727.47
2019-05-20T08:13:06.580Z,99722.53
2019-05-20T08:18:10.791Z,99721.10
2019-05-20T08:23:14.987Z,99715.00
2019-05-20T08:28:19.197Z,99724.06
2019-05-20T08:33:23.502Z,99720.59
2019-05-20T08:38:27.724Z,99719.58
2019-05-20T08:43:31.895Z,99718.46
2019-05-20T08:48:36.103Z,99725.63
2019-05-20T08:53:40.692Z,99715.52
2019-05-20T08:58:44.901Z,99712.13
2019-05-20T09:03:49.091Z,99706.27
2019-05-20T09:08:53.321Z,99714.17
2019-05-20T09:13:57.577Z,99716.19
2019-05-20T09:19:01.757Z,99707.55
2019-05-20T09:24:06.310Z,99703.34
2019-05-20T09:29:11.537Z,99702.74
2019-05-20T09:34:16.273Z,99704.48
2019-05-20T09:39:20.520Z,99694.56
2019-05-20T09:44:24.792Z,99694.01
2019-05-20T09:49:29.016Z,99685.89
2019-05-20T09:54:33.228Z,99683.29
2019-05-20T09:59:43.423Z,99682.83
2019-05-20T10:04:43.477Z,99674.34
2019-05-20T10:09:47.673Z,99680.24
2019-05-20T10:14:52.883Z,99678.05
2019-05-20T10:19:57.174Z,99666.95
2019-05-20T10:25:01.713Z,99663.06
2019-05-20T10:30:06.862Z,99667.32
2019-05-20T10:35:11.508Z,99666.55
2019-05-20T10:40:16.002Z,99666.76
2019-05-20T10:45:20.205Z,99664.72
2019-05-20T10:50:24.400Z,99666.58
2019-05-20T10:55:28.613Z,99660.54
2019-05-20T11:00:32.962Z,99665.41
2019-05-20T11:05:37.138Z,99655.63
2019-05-20T11:10:41.320Z,99658.36
2019-05-20T11:15:45.572Z,99657.78
2019-05-20T11:20:49.765Z,99665.56
2019-05-20T11:25:54.034Z,99669.19
2019-05-20T11:30:58.419Z,99661.72
2019-05-20T11:36:02.608Z,99655.38
2019-05-20T11:41:06.792Z,99664.19
2019-05-20T11:46:12.119Z,99657.03
2019-05-20T11:51:16.315Z,99655.50
2019-05-20T11:56:20.508Z,99658.77
2019-05-20T12:01:24.735Z,99644.06
2019-05-20T12:06:28.947Z,99643.27
2019-05-20T12:11:33.135Z,99646.22
2019-05-20T12:16:37.461Z,99642.37
2019-05-20T12:21:41.667Z,99641.48
2019-05-20T12:26:45.854Z,99630.98
2019-05-20T12:31:50.038Z,99618.75
2019-05-20T12:36:54.276Z,99606.10
2019-05-20T12:41:58.449Z,99594.62
2019-05-20T12:47:03.353Z,99589.06
2019-05-20T12:52:07.569Z,99591.27
2019-05-20T12:57:11.802Z,99580.98
2019-05-20T13:02:17.476Z,99570.65
2019-05-20T13:07:21.900Z,99568.23
2019-05-20T13:12:26.091Z,99553.03
2019-05-20T13:17:30.324Z,99551.88
2019-05-20T13:22:34.497Z,99540.44
2019-05-20T13:27:38.691Z,99533.12
2019-05-20T13:32:42.994Z,99533.51
2019-05-20T13:37:47.201Z,99538.39
2019-05-20T13:42:51.493Z,99549.44
2019-05-20T13:47:55.684Z,99554.33
2019-05-20T13:52:59.872Z,99542.73
2019-05-20T13:58:04.258Z,99532.89
2019-05-20T14:03:08.515Z,99518.76
2019-05-20T14:08:12.756Z,99518.88
2019-05-20T14:13:17.023Z,99506.69
2019-05-20T14:18:21.224Z,99512.48
2019-05-20T14:23:25.438Z,99521.87
2019-05-20T14:28:29.629Z,99535.59
2019-05-20T14:33:33.861Z,99536.07
2019-05-20T14:38:38.080Z,99527.27
2019-05-20T14:43:42.340Z,99535.16
2019-05-20T14:48:46.523Z,99530.95
2019-05-20T14:53:50.765Z,99531.05
2019-05-20T14:58:55.857Z,99512.89
2019-05-20T15:04:00.169Z,99515.33
2019-05-20T15:09:05.160Z,99511.59
2019-05-20T15:14:09.396Z,99521.25
2019-05-20T15:19:13.601Z,99535.83
2019-05-20T15:24:17.798Z,99544.27
2019-05-20T15:29:27.989Z,99543.88
2019-05-20T15:34:27.968Z,99580.13
2019-05-20T15:39:32.272Z,99598.52
2019-05-20T15:44:36.475Z,99623.97
2019-05-20T15:49:40.712Z,99605.30
2019-05-20T15:54:44.932Z,99570.45
2019-05-20T15:59:49.146Z,99570.45
2019-05-20T16:04:53.438Z,99562.95
2019-05-20T16:09:57.625Z,99550.48
2019-05-20T16:15:01.853Z,99556.67
2019-05-20T16:20:07.288Z,99542.22
2019-05-20T16:25:12.082Z,99532.16
2019-05-20T16:30:16.592Z,99501.28
2019-05-20T16:35:21.006Z,99518.49
2019-05-20T16:40:25.199Z,99496.03
2019-05-20T16:45:29.385Z,99500.31
2019-05-20T16:50:33.757Z,99504.45
2019-05-20T16:55:37.962Z,99510.03
2019-05-20T17:00:43.114Z,99519.69
2019-05-20T17:05:47.333Z,99514.11
2019-05-20T17:10:51.556Z,99516.72
2019-05-20T17:15:55.805Z,99515.59
2019-05-20T17:20:59.991Z,99522.31
2019-05-20T17:26:04.227Z,99527.68
2019-05-20T17:31:08.425Z,99522.86
2019-05-20T17:36:12.710Z,99505.17
2019-05-20T17:41:16.908Z,99522.28
2019-05-20T17:46:21.233Z,99525.82
2019-05-20T17:51:25.451Z,99531.28
2019-05-20T17:56:29.841Z,99530.46
2019-05-20T18:01:34.082Z,99511.64
2019-05-20T18:06:38.273Z,99511.64
2019-05-20T18:11:42.482Z,99525.10
2019-05-20T18:16:46.733Z,99525.10
2019-05-20T18:21:50.975Z,99533.72
2019-05-20T18:26:55.186Z,99539.82
2019-05-20T18:31:59.449Z,99530.52
2019-05-20T18:37:04.157Z,99547.34
2019-05-20T18:42:08.390Z,99545.25
2019-05-20T18:47:13.031Z,99554.26
2019-05-20T18:52:17.341Z,99553.58
2019-05-20T18:57:21.598Z,99555.67
2019-05-20T19:02:26.845Z,99559.64
2019-05-20T19:07:31.131Z,99563.45
2019-05-20T19:12:35.404Z,99565.66
2019-05-20T19:17:39.651Z,99577.50
2019-05-20T19:22:43.878Z,99577.50
2019-05-20T19:27:48.106Z,99573.73
2019-05-20T19:32:52.398Z,99592.02
2019-05-20T19:37:57.025Z,99592.02
2019-05-20T19:43:01.538Z,99596.22
2019-05-20T19:48:05.775Z,99603.36
2019-05-20T19:53:10.149Z,99610.48
2019-05-20T19:58:14.456Z,99614.05
2019-05-20T20:03:18.671Z,99629.71
2019-05-20T20:08:22.896Z,99625.84
2019-05-20T20:13:28.243Z,99634.98
2019-05-20T20:18:32.466Z,99635.63
2019-05-20T20:23:36.697Z,99640.85
2019-05-20T20:28:40.940Z,99634.22
2019-05-20T20:33:45.171Z,99637.61
2019-05-20T20:38:49.409Z,99637.69
2019-05-20T20:43:53.640Z,99635.25
2019-05-20T20:48:57.875Z,99643.63
2019-05-20T20:54:02.492Z,99659.64
2019-05-20T20:59:06.716Z,99670.05
2019-05-20T21:04:10.949Z,99671.14
2019-05-20T21:09:15.182Z,99660.78
2019-05-20T21:14:19.419Z,99668.25
2019-05-20T21:19:23.623Z,99678.41
2019-05-20T21:24:27.833Z,99684.14
2019-05-20T21:29:32.745Z,99678.03
2019-05-20T21:34:37.130Z,99682.27
2019-05-20T21:39:41.338Z,99693.91
2019-05-20T21:44:45.544Z,99686.97
2019-05-20T21:49:49.736Z,99691.76
2019-05-20T21:54:53.976Z,99691.58
2019-05-20T21:59:58.173Z,99688.66
2019-05-20T22:05:02.870Z,99692.73
2019-05-20T22:10:07.463Z,99696.53
2019-05-20T22:15:11.778Z,99686.88
2019-05-20T22:20:16.498Z,99680.26
2019-05-20T22:25:20.802Z,99682.53
2019-05-20T22:30:25.001Z,99686.03
2019-05-20T22:35:29.228Z,99681.69
2019-05-20T22:40:33.431Z,99681.54
2019-05-20T22:45:37.639Z,99684.79
2019-05-20T22:50:41.887Z,99694.78
2019-05-20T22:55:46.078Z,99692.97
2019-05-20T23:00:50.308Z,99685.83
2019-05-20T23:05:54.490Z,99692.38
2019-05-20T23:10:58.696Z,99701.58
2019-05-20T23:16:02.889Z,99703.09
2019-05-20T23:21:07.152Z,99703.44
2019-05-20T23:26:11.374Z,99704.52
2019-05-20T23:31:15.579Z,99701.03
2019-05-20T23:36:19.834Z,99707.24
2019-05-20T23:41:24.028Z,99712.71
2019-05-20T23:46:28.247Z,99720.03
2019-05-20T23:51:32.449Z,99717.91
2019-05-20T23:56:36.657Z,99713.35
